createdAt,value
2023-03-08T09:21:30.222Z,141348.72
2023-03-08T09:26:34.492Z,141377.03
2023-03-08T09:31:42.276Z,141433.75
2023-03-08T09:36:47.468Z,141417.69
2023-03-08T09:41:55.412Z,141502.69
2023-03-08T09:47:02.686Z,141559.41
2023-03-08T09:52:12.076Z,141447.28
2023-03-08T09:57:17.232Z,141432.50
2023-03-08T10:02:25.153Z,141423.91
2023-03-08T10:07:35.107Z,141491.66
2023-03-08T10:12:50.402Z,141513.81
2023-03-08T10:17:56.325Z,141584.09
2023-03-08T10:23:02.020Z,141632.19
2023-03-08T10:28:10.744Z,141696.34
2023-03-08T10:33:14.903Z,141740.78
2023-03-08T10:38:19.965Z,141727.19
2023-03-08T10:43:29.018Z,141782.72
2023-03-08T10:48:34.705Z,141774.09
2023-03-08T10:53:39.441Z,141712.38
2023-03-08T10:58:42.815Z,141776.56
2023-03-08T11:03:46.213Z,141834.56
2023-03-08T11:08:55.291Z,141929.66
2023-03-08T11:14:01.091Z,141978.97
2023-03-08T11:19:10.852Z,141891.34
2023-03-08T11:24:19.923Z,141838.25
2023-03-08T11:29:30.354Z,141714.84
2023-03-08T11:34:44.660Z,141666.72
2023-03-08T11:39:53.961Z,141693.88
2023-03-08T11:45:05.491Z,141740.78
2023-03-08T11:50:11.570Z,141745.69
2023-03-08T11:55:29.493Z,141721.00
2023-03-08T12:00:35.814Z,141729.63
2023-03-08T12:05:42.187Z,141640.81
2023-03-08T12:10:49.925Z,141623.56
2023-03-08T12:15:55.349Z,141692.63
2023-03-08T12:21:01.447Z,141659.34
2023-03-08T12:26:09.869Z,141692.63
2023-03-08T12:31:27.903Z,141753.09
2023-03-08T12:36:38.981Z,141743.22
2023-03-08T12:41:43.938Z,141812.34
2023-03-08T12:47:01.753Z,141606.28
2023-03-08T12:52:24.428Z,141692.63
2023-03-08T12:57:30.711Z,141712.38
2023-03-08T13:02:36.568Z,141724.72
2023-03-08T13:07:48.717Z,141676.63
2023-03-08T13:13:00.810Z,141695.09
2023-03-08T13:18:06.258Z,141714.84
2023-03-08T13:23:18.077Z,141654.41
2023-03-08T13:28:23.854Z,141558.19
2023-03-08T13:33:28.587Z,141585.31
2023-03-08T13:38:35.162Z,141577.94
2023-03-08T13:43:42.419Z,141512.59
2023-03-08T13:48:46.412Z,141451.00
2023-03-08T13:53:49.796Z,141465.78
2023-03-08T13:58:55.675Z,141374.59
2023-03-08T14:04:01.219Z,141417.69
2023-03-08T14:09:05.870Z,141438.66
2023-03-08T14:14:18.358Z,141448.50
2023-03-08T14:19:24.248Z,141414.00
2023-03-08T14:24:30.840Z,141370.91
2023-03-08T14:29:36.494Z,141241.53
2023-03-08T14:34:40.967Z,141172.59
2023-03-08T14:39:46.336Z,141188.56
2023-03-08T14:44:55.896Z,141183.66
2023-03-08T14:50:01.847Z,141167.63
2023-03-08T14:55:20.527Z,141173.81
2023-03-08T15:00:27.567Z,141151.66
2023-03-08T15:05:31.241Z,141098.75
2023-03-08T15:10:36.552Z,141027.34
2023-03-08T15:15:41.475Z,140997.81
2023-03-08T15:20:45.865Z,140981.84
2023-03-08T15:25:49.496Z,140995.38
2023-03-08T15:30:55.936Z,140946.19
2023-03-08T15:35:59.747Z,140919.13
2023-03-08T15:41:05.398Z,140909.25
2023-03-08T15:46:12.123Z,140896.97
2023-03-08T15:51:19.412Z,140866.22
2023-03-08T15:56:22.984Z,140837.97
2023-03-08T16:01:33.297Z,140823.19
2023-03-08T16:06:37.156Z,140808.44
2023-03-08T16:11:40.485Z,140743.31
2023-03-08T16:16:46.182Z,140713.81
2023-03-08T16:21:51.020Z,140692.91
2023-03-08T16:26:54.390Z,140705.22
2023-03-08T16:32:03.002Z,140686.78
2023-03-08T16:37:06.603Z,140662.19
2023-03-08T16:42:12.303Z,140678.19
2023-03-08T16:47:17.450Z,140672.06
2023-03-08T16:52:20.872Z,140638.88
2023-03-08T16:57:24.343Z,140629.03
2023-03-08T17:02:29.137Z,140604.44
2023-03-08T17:07:32.533Z,140559.03
2023-03-08T17:12:38.301Z,140582.38
2023-03-08T17:17:45.551Z,140565.16
2023-03-08T17:22:48.992Z,140551.63
2023-03-08T17:27:54.778Z,140545.50
2023-03-08T17:32:59.659Z,140556.56
2023-03-08T17:38:17.432Z,140538.13
2023-03-08T17:43:46.281Z,140533.22
2023-03-08T17:48:54.148Z,140518.47
2023-03-08T17:53:58.807Z,140506.22
2023-03-08T17:59:04.914Z,140507.44
2023-03-08T18:04:30.225Z,140491.47
2023-03-08T18:09:41.209Z,140454.69
2023-03-08T18:14:46.286Z,140448.56
2023-03-08T18:19:52.920Z,140439.94
2023-03-08T18:24:56.712Z,140426.44
2023-03-08T18:30:00.399Z,140393.31
2023-03-08T18:35:05.467Z,140384.69
2023-03-08T18:40:12.205Z,140422.78
2023-03-08T18:45:18.191Z,140400.66
2023-03-08T18:50:25.036Z,140454.69
2023-03-08T18:55:28.437Z,140420.31
2023-03-08T19:00:31.994Z,140382.25
2023-03-08T19:05:37.516Z,140425.22
2023-03-08T19:10:43.393Z,140436.25
2023-03-08T19:15:46.874Z,140412.91
2023-03-08T19:20:51.576Z,140427.66
2023-03-08T19:26:17.703Z,140414.16
2023-03-08T19:31:21.258Z,140390.88
2023-03-08T19:36:26.224Z,140381.00
2023-03-08T19:41:29.736Z,140371.22
2023-03-08T19:46:33.166Z,140363.88
2023-03-08T19:51:40.472Z,140356.47
2023-03-08T19:56:43.838Z,140358.97
2023-03-08T20:01:50.107Z,140368.75
2023-03-08T20:06:54.951Z,140344.22
2023-03-08T20:11:59.172Z,140325.78
2023-03-08T20:17:04.915Z,140329.47
2023-03-08T20:22:09.843Z,140316.00
2023-03-08T20:27:15.505Z,140322.13
2023-03-08T20:32:18.934Z,140357.69
2023-03-08T20:37:23.844Z,140345.44
2023-03-08T20:42:29.305Z,140327.00
2023-03-08T20:47:34.937Z,140284.09
2023-03-08T20:52:39.804Z,140311.09
2023-03-08T20:57:43.273Z,140328.25
2023-03-08T21:02:46.880Z,140292.66
2023-03-08T21:07:52.007Z,140317.22
2023-03-08T21:12:55.379Z,140317.22
2023-03-08T21:17:58.894Z,140309.88
2023-03-08T21:23:03.753Z,140268.13
2023-03-08T21:28:07.332Z,140279.19
2023-03-08T21:33:10.844Z,140284.09
2023-03-08T21:38:15.672Z,140285.31
2023-03-08T21:43:19.136Z,140285.31
2023-03-08T21:48:22.624Z,140289.00
2023-03-08T21:53:27.479Z,140275.53
2023-03-08T21:58:30.810Z,140308.63
2023-03-08T22:03:34.693Z,140282.88
2023-03-08T22:08:43.424Z,140235.00
2023-03-08T22:13:50.136Z,140260.78
2023-03-08T22:18:54.677Z,140297.56
2023-03-08T22:24:00.904Z,140290.22
2023-03-08T22:29:04.911Z,140285.31
2023-03-08T22:34:08.656Z,140281.66
2023-03-08T22:39:16.930Z,140259.56
